Hub


Voltar

 INFORMAÇÕES METEOROLÓGICAS

METAR FOR LOWW


ADDS - METARS form results

(0314 UTC 20 April 2019)
Data provider http://aviationweather.gov/metar/data/
 
METAR text: LOWW 200250Z VRB01KT CAVOK 06/M00 Q1029 NOSIG
Conditions at: LOWW (VIENNA/SCHWECHAT, AT) observed 0250 UTC 20 April 2019
Temperature: 6.0°C (43°F)
Dewpoint: 0.0°C (32°F) [RH = 65%]
Pressure (altimeter): 30.38 inches Hg (1029.0 mb)
Winds: variable direction winds at 1 MPH (1 knots; 0.5 m/s)
Visibility: 6 or more miles (10+ km)
Ceiling: ceiling and visibility are OK
Clouds: unknown
Weather: no significant weather observed at this time

METAR text: LOWW 200220Z VRB02KT CAVOK 06/00 Q1029 NOSIG
Conditions at: LOWW (VIENNA/SCHWECHAT, AT) observed 0220 UTC 20 April 2019
Temperature: 6.0°C (43°F)
Dewpoint: 0.0°C (32°F) [RH = 65%]
Pressure (altimeter): 30.38 inches Hg (1029.0 mb)
Winds: variable direction winds at 2 MPH (2 knots; 1.0 m/s)
Visibility: 6 or more miles (10+ km)
Ceiling: ceiling and visibility are OK
Clouds: unknown
Weather: no significant weather observed at this time

Forecast for: LOWW (VIENNA/SCHWECHAT, AT)
Text: TAF LOWW 200215Z 2003/2109 VRB02KT CAVOK TX22/2015Z TN06/2004Z
Forecast period: 0300 UTC 20 April 2019 to 0900 UTC 21 April 2019
Forecast type: FROM: standard forecast or significant change
Winds: variable direction winds at 2 MPH (2 knots; 1.0 m/s)
Visibility: 6 or more miles 10+ km)
Ceiling: unknown
Clouds: missing
Weather: no significant weather forecast for this period


 MAPA DO AEROPORTO


 INFORMAÇÕES DA PISTA

Pista 11 Tamanho da pista 11483 ft Largura da pista 148 ft
Elevação da pista 575 ft Ranhura da pista 0 ft Proa da pista 116
Pista 29 Tamanho da pista 11483 ft Largura da pista 148 ft
Elevação da pista 600 ft Ranhura da pista 0 ft Proa da pista 296
Pista 16 Tamanho da pista 11811 ft Largura da pista 148 ft
Elevação da pista 597 ft Ranhura da pista 2953 ft Proa da pista 164
Pista 34 Tamanho da pista 11811 ft Largura da pista 148 ft
Elevação da pista 586 ft Ranhura da pista 0 ft Proa da pista 344

 FREQUÊNCIAS DO AEROPORTO

Tipo APP Nome WIEN RADAR Frequência 128.2 MHZ
Tipo ATIS Nome ATIS Frequência 121.725 MHZ
Tipo CLD Nome WIEN CLNC Frequência 122.125 MHZ
Tipo DIR Nome DIRECTOR Frequência 119.8 MHZ
Tipo GND Nome WIEN GND Frequência 121.6 MHZ
Tipo INFO Nome INFO Frequência 118.525 MHZ
Tipo RMP Nome VIENNA ICE Frequência 131.625 MHZ
Tipo TWR Nome WIEN TWR Frequência 119.4 MHZ

 AUXÍLIOS DE NAVEGAÇÃO PRÓXIMOS AO AEROPORTO

Tipo NDB Nome Bruck Frequência 408 KHZ
Tipo VOR-DME Nome Fischamend Frequência 110400 KHZ
Tipo VOR-DME Nome Sollenau Frequência 115500 KHZ
Tipo NDB Nome Steinhof Frequência 293 KHZ
Tipo VOR-DME Nome Wagram Frequência 112200 KHZ
Tipo NDB Nome Schwechat Frequência 303 KHZ